sensor_id;sensor_type;location;lat;lon;timestamp;pressure;altitude;pressure_sealevel;temperature;humidity
50852;BME280;43953;45.508;-122.806;2022-12-18T00:00:06;101148.38;;;6.71;54.54
50852;BME280;43953;45.508;-122.806;2022-12-18T00:00:42;101150.22;;;6.71;54.63
50852;BME280;43953;45.508;-122.806;2022-12-18T00:01:22;101147.56;;;6.71;54.80
50852;BME280;43953;45.508;-122.806;2022-12-18T00:01:58;101146.72;;;6.70;54.73
50852;BME280;43953;45.508;-122.806;2022-12-18T00:02:30;101145.91;;;6.70;54.52
50852;BME280;43953;45.508;-122.806;2022-12-18T00:03:08;101152.44;;;6.67;54.43
50852;BME280;43953;45.508;-122.806;2022-12-18T00:03:46;101148.72;;;6.68;54.01
50852;BME280;43953;45.508;-122.806;2022-12-18T00:04:23;101150.41;;;6.69;54.38
50852;BME280;43953;45.508;-122.806;2022-12-18T00:04:55;101153.09;;;6.69;54.73
50852;BME280;43953;45.508;-122.806;2022-12-18T00:05:26;101146.06;;;6.68;54.42
50852;BME280;43953;45.508;-122.806;2022-12-18T00:05:58;101143.38;;;6.68;54.90
50852;BME280;43953;45.508;-122.806;2022-12-18T00:06:30;101143.56;;;6.67;54.80
50852;BME280;43953;45.508;-122.806;2022-12-18T00:07:03;101146.25;;;6.67;54.91
50852;BME280;43953;45.508;-122.806;2022-12-18T00:07:35;101146.41;;;6.65;54.98
50852;BME280;43953;45.508;-122.806;2022-12-18T00:08:07;101141.72;;;6.67;54.98
50852;BME280;43953;45.508;-122.806;2022-12-18T00:08:40;101144.59;;;6.66;54.51
50852;BME280;43953;45.508;-122.806;2022-12-18T00:09:12;101141.25;;;6.64;54.49
50852;BME280;43953;45.508;-122.806;2022-12-18T00:09:44;101146.59;;;6.64;54.72
50852;BME280;43953;45.508;-122.806;2022-12-18T00:10:15;101141.41;;;6.62;55.04
50852;BME280;43953;45.508;-122.806;2022-12-18T00:10:47;101147.75;;;6.61;54.74
50852;BME280;43953;45.508;-122.806;2022-12-18T00:11:21;101149.44;;;6.62;54.80
50852;BME280;43953;45.508;-122.806;2022-12-18T00:11:53;101144.06;;;6.62;54.77
50852;BME280;43953;45.508;-122.806;2022-12-18T00:12:24;101150.44;;;6.61;55.06
50852;BME280;43953;45.508;-122.806;2022-12-18T00:12:56;101144.25;;;6.60;54.55
50852;BME280;43953;45.508;-122.806;2022-12-18T00:13:28;101140.91;;;6.58;54.82
50852;BME280;43953;45.508;-122.806;2022-12-18T00:13:59;101138.09;;;6.60;54.92
50852;BME280;43953;45.508;-122.806;2022-12-18T00:14:32;101139.91;;;6.59;55.11
50852;BME280;43953;45.508;-122.806;2022-12-18T00:15:04;101142.56;;;6.59;54.94
50852;BME280;43953;45.508;-122.806;2022-12-18T00:15:37;101132.06;;;6.58;54.75
50852;BME280;43953;45.508;-122.806;2022-12-18T00:16:11;101136.22;;;6.60;55.11
50852;BME280;43953;45.508;-122.806;2022-12-18T00:16:44;101140.75;;;6.60;54.99
50852;BME280;43953;45.508;-122.806;2022-12-18T00:17:17;101133.72;;;6.59;54.72
50852;BME280;43953;45.508;-122.806;2022-12-18T00:17:48;101140.91;;;6.58;54.93
50852;BME280;43953;45.508;-122.806;2022-12-18T00:18:20;101139.06;;;6.59;55.07
50852;BME280;43953;45.508;-122.806;2022-12-18T00:18:53;101136.38;;;6.59;54.97
50852;BME280;43953;45.508;-122.806;2022-12-18T00:19:26;101132.88;;;6.58;54.67
50852;BME280;43953;45.508;-122.806;2022-12-18T00:19:57;101137.41;;;6.58;54.84
50852;BME280;43953;45.508;-122.806;2022-12-18T00:20:29;101133.22;;;6.55;55.14
50852;BME280;43953;45.508;-122.806;2022-12-18T00:21:03;101140.44;;;6.55;55.11
50852;BME280;43953;45.508;-122.806;2022-12-18T00:21:35;101136.09;;;6.54;55.12
50852;BME280;43953;45.508;-122.806;2022-12-18T00:22:07;101131.72;;;6.53;54.74
50852;BME280;43953;45.508;-122.806;2022-12-18T00:22:38;101134.41;;;6.53;55.20
50852;BME280;43953;45.508;-122.806;2022-12-18T00:23:10;101134.41;;;6.53;54.97
50852;BME280;43953;45.508;-122.806;2022-12-18T00:23:44;101138.94;;;6.52;54.74
50852;BME280;43953;45.508;-122.806;2022-12-18T00:24:16;101142.63;;;6.51;55.18
50852;BME280;43953;45.508;-122.806;2022-12-18T00:24:47;101138.09;;;6.52;55.23
50852;BME280;43953;45.508;-122.806;2022-12-18T00:25:19;101138.09;;;6.52;54.96
50852;BME280;43953;45.508;-122.806;2022-12-18T00:25:51;101136.44;;;6.51;55.03
50852;BME280;43953;45.508;-122.806;2022-12-18T00:26:25;101135.78;;;6.49;55.30
50852;BME280;43953;45.508;-122.806;2022-12-18T00:26:57;101135.94;;;6.47;55.30
50852;BME280;43953;45.508;-122.806;2022-12-18T00:27:29;101138.78;;;6.46;55.15
50852;BME280;43953;45.508;-122.806;2022-12-18T00:28:01;101141.47;;;6.46;55.13
50852;BME280;43953;45.508;-122.806;2022-12-18T00:28:34;101130.56;;;6.47;54.71
50852;BME280;43953;45.508;-122.806;2022-12-18T00:29:13;101130.56;;;6.47;55.22
50852;BME280;43953;45.508;-122.806;2022-12-18T00:29:45;101135.94;;;6.47;55.46
50852;BME280;43953;45.508;-122.806;2022-12-18T00:30:17;101140.44;;;6.47;54.97
50852;BME280;43953;45.508;-122.806;2022-12-18T00:30:48;101140.44;;;6.47;55.11
50852;BME280;43953;45.508;-122.806;2022-12-18T00:31:24;101143.94;;;6.47;54.90
50852;BME280;43953;45.508;-122.806;2022-12-18T00:31:56;101139.63;;;6.46;55.00
50852;BME280;43953;45.508;-122.806;2022-12-18T00:32:28;101144.97;;;6.46;54.88
50852;BME280;43953;45.508;-122.806;2022-12-18T00:32:59;101141.47;;;6.46;54.95
50852;BME280;43953;45.508;-122.806;2022-12-18T00:33:31;101144.28;;;6.44;55.28
50852;BME280;43953;45.508;-122.806;2022-12-18T00:34:03;101138.31;;;6.42;54.86
50852;BME280;43953;45.508;-122.806;2022-12-18T00:34:35;101138.31;;;6.42;54.96
50852;BME280;43953;45.508;-122.806;2022-12-18T00:35:07;101135.63;;;6.42;54.93
50852;BME280;43953;45.508;-122.806;2022-12-18T00:35:39;101129.75;;;6.38;54.96
50852;BME280;43953;45.508;-122.806;2022-12-18T00:36:13;101133.94;;;6.41;55.29
50852;BME280;43953;45.508;-122.806;2022-12-18T00:36:47;101135.78;;;6.41;54.95
50852;BME280;43953;45.508;-122.806;2022-12-18T00:37:20;101132.09;;;6.42;54.87
50852;BME280;43953;45.508;-122.806;2022-12-18T00:37:51;101132.28;;;6.40;55.36
50852;BME280;43953;45.508;-122.806;2022-12-18T00:38:23;101132.44;;;6.38;54.97
50852;BME280;43953;45.508;-122.806;2022-12-18T00:38:56;101132.44;;;6.38;54.87
50852;BME280;43953;45.508;-122.806;2022-12-18T00:39:28;101135.31;;;6.37;55.34
50852;BME280;43953;45.508;-122.806;2022-12-18T00:40:00;101140.47;;;6.38;55.17
50852;BME280;43953;45.508;-122.806;2022-12-18T00:40:31;101135.13;;;6.38;55.25
50852;BME280;43953;45.508;-122.806;2022-12-18T00:41:04;101132.44;;;6.38;55.11
50852;BME280;43953;45.508;-122.806;2022-12-18T00:41:36;101137.78;;;6.38;55.33
50852;BME280;43953;45.508;-122.806;2022-12-18T00:42:26;101129.13;;;6.36;55.05
50852;BME280;43953;45.508;-122.806;2022-12-18T00:43:16;101136.47;;;6.34;55.43
50852;BME280;43953;45.508;-122.806;2022-12-18T00:43:47;101134.97;;;6.32;54.96
50852;BME280;43953;45.508;-122.806;2022-12-18T00:44:19;101129.47;;;6.33;55.02
50852;BME280;43953;45.508;-122.806;2022-12-18T00:44:51;101137.50;;;6.33;55.27
50852;BME280;43953;45.508;-122.806;2022-12-18T00:45:29;101133.13;;;6.32;54.98
50852;BME280;43953;45.508;-122.806;2022-12-18T00:46:01;101129.63;;;6.32;55.49
50852;BME280;43953;45.508;-122.806;2022-12-18T00:46:33;101135.47;;;6.35;55.34
50852;BME280;43953;45.508;-122.806;2022-12-18T00:47:05;101135.47;;;6.35;55.30
50852;BME280;43953;45.508;-122.806;2022-12-18T00:47:36;101135.13;;;6.38;55.43
50852;BME280;43953;45.508;-122.806;2022-12-18T00:48:08;101136.97;;;6.38;55.42
50852;BME280;43953;45.508;-122.806;2022-12-18T00:48:39;101134.13;;;6.40;55.38
50852;BME280;43953;45.508;-122.806;2022-12-18T00:49:11;101139.47;;;6.40;55.12
50852;BME280;43953;45.508;-122.806;2022-12-18T00:49:43;101134.13;;;6.40;54.95
50852;BME280;43953;45.508;-122.806;2022-12-18T00:50:15;101132.09;;;6.42;55.39
50852;BME280;43953;45.508;-122.806;2022-12-18T00:50:50;101125.91;;;6.41;55.03
50852;BME280;43953;45.508;-122.806;2022-12-18T00:51:22;101127.59;;;6.42;55.08
50852;BME280;43953;45.508;-122.806;2022-12-18T00:51:53;101135.63;;;6.42;55.17
50852;BME280;43953;45.508;-122.806;2022-12-18T00:52:25;101129.25;;;6.43;55.29
50852;BME280;43953;45.508;-122.806;2022-12-18T00:52:57;101128.44;;;6.43;55.18
50852;BME280;43953;45.508;-122.806;2022-12-18T00:53:28;101132.09;;;6.42;55.06
50852;BME280;43953;45.508;-122.806;2022-12-18T00:54:00;101134.97;;;6.40;54.95
50852;BME280;43953;45.508;-122.806;2022-12-18T00:54:32;101121.59;;;6.40;54.99
50852;BME280;43953;45.508;-122.806;2022-12-18T00:55:04;101124.25;;;6.40;55.18
50852;BME280;43953;45.508;-122.806;2022-12-18T00:55:38;101134.13;;;6.40;55.30
50852;BME280;43953;45.508;-122.806;2022-12-18T00:56:10;101123.44;;;6.40;55.13
50852;BME280;43953;45.508;-122.806;2022-12-18T00:56:42;101123.44;;;6.40;55.15
50852;BME280;43953;45.508;-122.806;2022-12-18T00:57:14;101128.78;;;6.40;55.02
50852;BME280;43953;45.508;-122.806;2022-12-18T00:57:45;101122.59;;;6.39;55.45
50852;BME280;43953;45.508;-122.806;2022-12-18T00:58:18;101120.91;;;6.38;55.34
50852;BME280;43953;45.508;-122.806;2022-12-18T00:58:50;101113.72;;;6.38;55.74
50852;BME280;43953;45.508;-122.806;2022-12-18T00:59:22;101115.56;;;6.38;55.72
50852;BME280;43953;45.508;-122.806;2022-12-18T00:59:53;101116.38;;;6.38;55.80
50852;BME280;43953;45.508;-122.806;2022-12-18T01:00:25;101120.09;;;6.37;55.95
50852;BME280;43953;45.508;-122.806;2022-12-18T01:00:57;101113.06;;;6.36;55.73
50852;BME280;43953;45.508;-122.806;2022-12-18T01:01:28;101109.56;;;6.36;55.69
50852;BME280;43953;45.508;-122.806;2022-12-18T01:02:00;101110.41;;;6.36;55.62
50852;BME280;43953;45.508;-122.806;2022-12-18T01:02:32;101113.06;;;6.36;55.84
50852;BME280;43953;45.508;-122.806;2022-12-18T01:03:04;101105.06;;;6.36;55.65
50852;BME280;43953;45.508;-122.806;2022-12-18T01:03:36;101103.38;;;6.35;55.14
50852;BME280;43953;45.508;-122.806;2022-12-18T01:04:08;101106.03;;;6.35;55.70
50852;BME280;43953;45.508;-122.806;2022-12-18T01:04:39;101107.88;;;6.35;55.30
50852;BME280;43953;45.508;-122.806;2022-12-18T01:05:12;101099.69;;;6.36;55.41
50852;BME280;43953;45.508;-122.806;2022-12-18T01:05:44;101098.19;;;6.34;55.25
50852;BME280;43953;45.508;-122.806;2022-12-18T01:06:16;101103.38;;;6.35;55.86
50852;BME280;43953;45.508;-122.806;2022-12-18T01:06:48;101102.72;;;6.33;55.67
50852;BME280;43953;45.508;-122.806;2022-12-18T01:07:20;101103.69;;;6.32;55.86
50852;BME280;43953;45.508;-122.806;2022-12-18T01:07:51;101110.56;;;6.35;55.60
50852;BME280;43953;45.508;-122.806;2022-12-18T01:08:23;101096.50;;;6.33;55.38
50852;BME280;43953;45.508;-122.806;2022-12-18T01:08:55;101101.72;;;6.34;55.80
50852;BME280;43953;45.508;-122.806;2022-12-18T01:09:27;101109.06;;;6.32;55.70
50852;BME280;43953;45.508;-122.806;2022-12-18T01:09:59;101113.41;;;6.33;55.70
50852;BME280;43953;45.508;-122.806;2022-12-18T01:10:30;101104.38;;;6.34;55.63
50852;BME280;43953;45.508;-122.806;2022-12-18T01:11:14;101112.56;;;6.33;55.28
50852;BME280;43953;45.508;-122.806;2022-12-18T01:11:46;101113.41;;;6.33;55.25
50852;BME280;43953;45.508;-122.806;2022-12-18T01:12:17;101111.72;;;6.32;55.26
50852;BME280;43953;45.508;-122.806;2022-12-18T01:12:49;101106.38;;;6.32;55.54
50852;BME280;43953;45.508;-122.806;2022-12-18T01:13:21;101111.72;;;6.32;55.63
50852;BME280;43953;45.508;-122.806;2022-12-18T01:13:53;101116.25;;;6.32;55.25
50852;BME280;43953;45.508;-122.806;2022-12-18T01:14:26;101108.41;;;6.30;55.45
50852;BME280;43953;45.508;-122.806;2022-12-18T01:14:57;101110.06;;;6.31;55.54
50852;BME280;43953;45.508;-122.806;2022-12-18T01:15:29;101103.06;;;6.30;55.41
50852;BME280;43953;45.508;-122.806;2022-12-18T01:16:01;101107.41;;;6.31;55.04
50852;BME280;43953;45.508;-122.806;2022-12-18T01:16:33;101094.88;;;6.24;55.21
50852;BME280;43953;45.508;-122.806;2022-12-18T01:17:05;101115.41;;;6.31;54.94
50852;BME280;43953;45.508;-122.806;2022-12-18T01:17:36;101103.06;;;6.30;55.18
50852;BME280;43953;45.508;-122.806;2022-12-18T01:18:08;101106.72;;;6.29;55.60
50852;BME280;43953;45.508;-122.806;2022-12-18T01:18:40;101111.25;;;6.29;55.64
50852;BME280;43953;45.508;-122.806;2022-12-18T01:19:12;101111.25;;;6.29;55.72
50852;BME280;43953;45.508;-122.806;2022-12-18T01:19:44;101104.25;;;6.28;55.77
50852;BME280;43953;45.508;-122.806;2022-12-18T01:20:15;101105.06;;;6.28;55.53
50852;BME280;43953;45.508;-122.806;2022-12-18T01:20:47;101105.06;;;6.28;55.07
50852;BME280;43953;45.508;-122.806;2022-12-18T01:21:19;101110.41;;;6.28;55.53
50852;BME280;43953;45.508;-122.806;2022-12-18T01:21:50;101100.72;;;6.27;55.20
50852;BME280;43953;45.508;-122.806;2022-12-18T01:22:22;101105.06;;;6.28;55.34
50852;BME280;43953;45.508;-122.806;2022-12-18T01:22:54;101099.88;;;6.27;55.57
50852;BME280;43953;45.508;-122.806;2022-12-18T01:23:25;101108.75;;;6.27;55.57
50852;BME280;43953;45.508;-122.806;2022-12-18T01:23:57;101103.41;;;6.27;55.74
50852;BME280;43953;45.508;-122.806;2022-12-18T01:24:29;101106.25;;;6.26;55.46
50852;BME280;43953;45.508;-122.806;2022-12-18T01:25:01;101110.41;;;6.28;55.35
50852;BME280;43953;45.508;-122.806;2022-12-18T01:25:33;101102.53;;;6.27;55.30
50852;BME280;43953;45.508;-122.806;2022-12-18T01:26:08;101107.91;;;6.27;55.54
50852;BME280;43953;45.508;-122.806;2022-12-18T01:26:40;101110.75;;;6.25;55.27
50852;BME280;43953;45.508;-122.806;2022-12-18T01:27:12;101107.06;;;6.26;55.56
50852;BME280;43953;45.508;-122.806;2022-12-18T01:27:44;101109.75;;;6.26;55.61
50852;BME280;43953;45.508;-122.806;2022-12-18T01:28:16;101114.09;;;6.27;55.43
50852;BME280;43953;45.508;-122.806;2022-12-18T01:28:47;101112.41;;;6.26;55.62
50852;BME280;43953;45.508;-122.806;2022-12-18T01:29:19;101109.75;;;6.26;55.34
50852;BME280;43953;45.508;-122.806;2022-12-18T01:29:51;101111.44;;;6.27;55.54
50852;BME280;43953;45.508;-122.806;2022-12-18T01:30:23;101108.91;;;6.26;55.29
50852;BME280;43953;45.508;-122.806;2022-12-18T01:30:54;101103.41;;;6.27;55.35
50852;BME280;43953;45.508;-122.806;2022-12-18T01:31:29;101106.25;;;6.26;55.82
50852;BME280;43953;45.508;-122.806;2022-12-18T01:32:01;101100.06;;;6.25;55.97
50852;BME280;43953;45.508;-122.806;2022-12-18T01:32:33;101108.75;;;6.27;55.44
50852;BME280;43953;45.508;-122.806;2022-12-18T01:33:05;101107.91;;;6.27;55.28
50852;BME280;43953;45.508;-122.806;2022-12-18T01:33:37;101109.59;;;6.28;55.58
50852;BME280;43953;45.508;-122.806;2022-12-18T01:34:09;101108.75;;;6.27;55.15
50852;BME280;43953;45.508;-122.806;2022-12-18T01:34:40;101101.72;;;6.26;55.72
50852;BME280;43953;45.508;-122.806;2022-12-18T01:35:12;101106.72;;;6.29;55.78
50852;BME280;43953;45.508;-122.806;2022-12-18T01:35:44;101104.06;;;6.29;55.48
50852;BME280;43953;45.508;-122.806;2022-12-18T01:36:24;101104.88;;;6.30;55.42
50852;BME280;43953;45.508;-122.806;2022-12-18T01:36:55;101105.06;;;6.28;55.71
50852;BME280;43953;45.508;-122.806;2022-12-18T01:37:27;101110.41;;;6.28;55.35
50852;BME280;43953;45.508;-122.806;2022-12-18T01:37:59;101108.75;;;6.27;55.74
50852;BME280;43953;45.508;-122.806;2022-12-18T01:38:30;101110.41;;;6.28;55.83
50852;BME280;43953;45.508;-122.806;2022-12-18T01:39:13;101109.59;;;6.28;55.71
50852;BME280;43953;45.508;-122.806;2022-12-18T01:39:45;101112.41;;;6.26;55.43
50852;BME280;43953;45.508;-122.806;2022-12-18T01:40:16;101111.59;;;6.26;55.19
50852;BME280;43953;45.508;-122.806;2022-12-18T01:40:48;101109.75;;;6.26;55.77
50852;BME280;43953;45.508;-122.806;2022-12-18T01:41:23;101111.44;;;6.27;55.78
50852;BME280;43953;45.508;-122.806;2022-12-18T01:41:54;101100.72;;;6.27;55.44
50852;BME280;43953;45.508;-122.806;2022-12-18T01:42:32;101108.75;;;6.27;55.52
50852;BME280;43953;45.508;-122.806;2022-12-18T01:43:04;101111.44;;;6.27;55.43
50852;BME280;43953;45.508;-122.806;2022-12-18T01:43:47;101102.53;;;6.27;55.54
50852;BME280;43953;45.508;-122.806;2022-12-18T01:44:54;101105.56;;;6.24;55.64
50852;BME280;43953;45.508;-122.806;2022-12-18T01:45:27;101102.06;;;6.23;55.85
50852;BME280;43953;45.508;-122.806;2022-12-18T01:46:00;101104.75;;;6.23;55.92
50852;BME280;43953;45.508;-122.806;2022-12-18T01:46:31;101098.41;;;6.24;55.70
50852;BME280;43953;45.508;-122.806;2022-12-18T01:47:03;101099.03;;;6.26;55.93
50852;BME280;43953;45.508;-122.806;2022-12-18T01:47:45;101101.72;;;6.26;55.42
50852;BME280;43953;45.508;-122.806;2022-12-18T01:48:17;101098.22;;;6.26;55.82
50852;BME280;43953;45.508;-122.806;2022-12-18T01:48:52;101094.72;;;6.25;56.04
50852;BME280;43953;45.508;-122.806;2022-12-18T01:49:25;101096.72;;;6.23;55.99
50852;BME280;43953;45.508;-122.806;2022-12-18T01:49:59;101103.75;;;6.24;55.43
50852;BME280;43953;45.508;-122.806;2022-12-18T01:51:10;101100.06;;;6.25;55.79
50852;BME280;43953;45.508;-122.806;2022-12-18T01:51:42;101093.88;;;6.25;55.84
50852;BME280;43953;45.508;-122.806;2022-12-18T01:52:15;101097.53;;;6.24;55.55
50852;BME280;43953;45.508;-122.806;2022-12-18T01:52:53;101094.72;;;6.25;55.87
50852;BME280;43953;45.508;-122.806;2022-12-18T01:53:25;101094.72;;;6.25;56.35
50852;BME280;43953;45.508;-122.806;2022-12-18T01:53:57;101091.03;;;6.26;55.95
50852;BME280;43953;45.508;-122.806;2022-12-18T01:54:30;101090.19;;;6.26;55.96
50852;BME280;43953;45.508;-122.806;2022-12-18T01:55:03;101093.88;;;6.25;55.88
50852;BME280;43953;45.508;-122.806;2022-12-18T01:55:56;101092.03;;;6.25;55.79
50852;BME280;43953;45.508;-122.806;2022-12-18T01:56:29;101093.88;;;6.25;56.07
50852;BME280;43953;45.508;-122.806;2022-12-18T01:57:00;101094.72;;;6.25;56.07
50852;BME280;43953;45.508;-122.806;2022-12-18T01:57:34;101087.72;;;6.24;55.76
50852;BME280;43953;45.508;-122.806;2022-12-18T01:58:06;101093.06;;;6.24;55.97
50852;BME280;43953;45.508;-122.806;2022-12-18T01:58:48;101089.38;;;6.25;56.27
50852;BME280;43953;45.508;-122.806;2022-12-18T01:59:23;101091.03;;;6.26;55.64
50852;BME280;43953;45.508;-122.806;2022-12-18T02:00:00;101093.88;;;6.25;56.07
50852;BME280;43953;45.508;-122.806;2022-12-18T02:00:34;101089.38;;;6.25;55.83
50852;BME280;43953;45.508;-122.806;2022-12-18T02:01:06;101086.03;;;6.23;56.21
50852;BME280;43953;45.508;-122.806;2022-12-18T02:01:37;101089.38;;;6.25;55.63
50852;BME280;43953;45.508;-122.806;2022-12-18T02:02:09;101092.03;;;6.25;55.93
50852;BME280;43953;45.508;-122.806;2022-12-18T02:02:42;101086.69;;;6.25;55.80
50852;BME280;43953;45.508;-122.806;2022-12-18T02:03:15;101093.69;;;6.26;55.85
50852;BME280;43953;45.508;-122.806;2022-12-18T02:03:46;101090.19;;;6.26;56.08
50852;BME280;43953;45.508;-122.806;2022-12-18T02:04:25;101091.03;;;6.26;55.78
50852;BME280;43953;45.508;-122.806;2022-12-18T02:04:58;101084.84;;;6.26;55.84
50852;BME280;43953;45.508;-122.806;2022-12-18T02:06:37;101084.16;;;6.24;56.00
50852;BME280;43953;45.508;-122.806;2022-12-18T02:07:25;101090.38;;;6.24;55.80
50852;BME280;43953;45.508;-122.806;2022-12-18T02:09:46;101091.72;;;6.20;55.85
50852;BME280;43953;45.508;-122.806;2022-12-18T02:10:28;101087.19;;;6.21;56.61
50852;BME280;43953;45.508;-122.806;2022-12-18T02:11:15;101094.22;;;6.22;56.10
50852;BME280;43953;45.508;-122.806;2022-12-18T02:11:59;101090.72;;;6.21;56.13
50852;BME280;43953;45.508;-122.806;2022-12-18T02:13:00;101093.41;;;6.21;56.19
50852;BME280;43953;45.508;-122.806;2022-12-18T02:15:14;101089.22;;;6.19;56.31
50852;BME280;43953;45.508;-122.806;2022-12-18T02:16:05;101090.06;;;6.19;56.21
50852;BME280;43953;45.508;-122.806;2022-12-18T02:17:43;101097.88;;;6.21;56.24
50852;BME280;43953;45.508;-122.806;2022-12-18T02:18:47;101095.41;;;6.19;55.92
50852;BME280;43953;45.508;-122.806;2022-12-18T02:20:23;101092.06;;;6.17;56.08
50852;BME280;43953;45.508;-122.806;2022-12-18T02:21:21;101093.91;;;6.17;56.40
50852;BME280;43953;45.508;-122.806;2022-12-18T02:22:24;101085.03;;;6.16;56.33
50852;BME280;43953;45.508;-122.806;2022-12-18T02:24:27;101080.69;;;6.15;56.73
50852;BME280;43953;45.508;-122.806;2022-12-18T02:25:25;101088.69;;;6.15;56.65
50852;BME280;43953;45.508;-122.806;2022-12-18T02:26:18;101085.88;;;6.17;56.27
50852;BME280;43953;45.508;-122.806;2022-12-18T02:27:00;101085.03;;;6.16;56.22
50852;BME280;43953;45.508;-122.806;2022-12-18T02:27:35;101086.69;;;6.17;56.42
50852;BME280;43953;45.508;-122.806;2022-12-18T02:28:11;101084.84;;;6.18;56.23
50852;BME280;43953;45.508;-122.806;2022-12-18T02:28:58;101083.88;;;6.19;56.48
50852;BME280;43953;45.508;-122.806;2022-12-18T02:29:40;101083.88;;;6.19;56.40
50852;BME280;43953;45.508;-122.806;2022-12-18T02:30:14;101084.84;;;6.18;56.31
50852;BME280;43953;45.508;-122.806;2022-12-18T02:30:49;101079.50;;;6.18;55.97
50852;BME280;43953;45.508;-122.806;2022-12-18T02:31:25;101082.19;;;6.18;56.63
50852;BME280;43953;45.508;-122.806;2022-12-18T02:32:03;101087.53;;;6.18;56.56
50852;BME280;43953;45.508;-122.806;2022-12-18T02:32:43;101094.72;;;6.17;56.50
50852;BME280;43953;45.508;-122.806;2022-12-18T02:33:19;101092.06;;;6.17;56.24
50852;BME280;43953;45.508;-122.806;2022-12-18T02:33:54;101093.91;;;6.17;56.24
50852;BME280;43953;45.508;-122.806;2022-12-18T02:34:33;101092.06;;;6.17;56.52
50852;BME280;43953;45.508;-122.806;2022-12-18T02:35:23;101082.38;;;6.16;56.53
50852;BME280;43953;45.508;-122.806;2022-12-18T02:35:57;101093.06;;;6.16;56.40
50852;BME280;43953;45.508;-122.806;2022-12-18T02:36:32;101085.03;;;6.16;56.17
50852;BME280;43953;45.508;-122.806;2022-12-18T02:37:07;101095.75;;;6.16;56.64
50852;BME280;43953;45.508;-122.806;2022-12-18T02:37:43;101090.41;;;6.16;56.80
50852;BME280;43953;45.508;-122.806;2022-12-18T02:38:16;101091.38;;;6.15;56.29
50852;BME280;43953;45.508;-122.806;2022-12-18T02:38:50;101086.69;;;6.17;56.79
50852;BME280;43953;45.508;-122.806;2022-12-18T02:39:28;101084.22;;;6.15;56.69
50852;BME280;43953;45.508;-122.806;2022-12-18T02:40:05;101092.06;;;6.17;56.60
50852;BME280;43953;45.508;-122.806;2022-12-18T02:40:38;101091.22;;;6.17;56.42
50852;BME280;43953;45.508;-122.806;2022-12-18T02:41:11;101088.34;;;6.18;56.82
50852;BME280;43953;45.508;-122.806;2022-12-18T02:41:44;101083.00;;;6.18;56.63
50852;BME280;43953;45.508;-122.806;2022-12-18T02:42:17;101077.66;;;6.18;56.60
50852;BME280;43953;45.508;-122.806;2022-12-18T02:42:50;101083.88;;;6.19;56.55
50852;BME280;43953;45.508;-122.806;2022-12-18T02:43:21;101089.22;;;6.19;56.14
50852;BME280;43953;45.508;-122.806;2022-12-18T02:44:07;101086.56;;;6.19;56.61
50852;BME280;43953;45.508;-122.806;2022-12-18T02:44:48;101086.69;;;6.17;56.83
50852;BME280;43953;45.508;-122.806;2022-12-18T02:45:31;101085.03;;;6.16;56.31
50852;BME280;43953;45.508;-122.806;2022-12-18T02:46:45;101090.41;;;6.16;56.53
50852;BME280;43953;45.508;-122.806;2022-12-18T02:47:20;101092.25;;;6.15;56.57
50852;BME280;43953;45.508;-122.806;2022-12-18T02:47:53;101092.06;;;6.17;56.45
50852;BME280;43953;45.508;-122.806;2022-12-18T02:48:28;101082.53;;;6.14;56.54
50852;BME280;43953;45.508;-122.806;2022-12-18T02:49:12;101098.22;;;6.18;56.45
50852;BME280;43953;45.508;-122.806;2022-12-18T02:50:45;101093.22;;;6.14;56.19
50852;BME280;43953;45.508;-122.806;2022-12-18T02:51:29;101093.22;;;6.14;56.30
50852;BME280;43953;45.508;-122.806;2022-12-18T02:52:35;101101.09;;;6.16;56.25
50852;BME280;43953;45.508;-122.806;2022-12-18T02:53:31;101102.06;;;6.15;56.34
50852;BME280;43953;45.508;-122.806;2022-12-18T02:54:14;101101.09;;;6.16;56.31
50852;BME280;43953;45.508;-122.806;2022-12-18T02:56:19;101104.59;;;6.17;56.57
50852;BME280;43953;45.508;-122.806;2022-12-18T02:56:56;101102.06;;;6.15;56.71
50852;BME280;43953;45.508;-122.806;2022-12-18T02:59:40;101103.91;;;6.14;56.83
50852;BME280;43953;45.508;-122.806;2022-12-18T03:00:15;101110.09;;;6.15;56.34
50852;BME280;43953;45.508;-122.806;2022-12-18T03:01:01;101103.09;;;6.14;56.29
50852;BME280;43953;45.508;-122.806;2022-12-18T03:03:35;101109.25;;;6.14;57.02
50852;BME280;43953;45.508;-122.806;2022-12-18T03:05:33;101106.78;;;6.13;56.81
50852;BME280;43953;45.508;-122.806;2022-12-18T03:06:28;101109.25;;;6.14;56.80
50852;BME280;43953;45.508;-122.806;2022-12-18T03:07:04;101105.59;;;6.15;57.17
50852;BME280;43953;45.508;-122.806;2022-12-18T03:07:43;101101.09;;;6.16;56.94
50852;BME280;43953;45.508;-122.806;2022-12-18T03:08:23;101099.06;;;6.18;56.70
50852;BME280;43953;45.508;-122.806;2022-12-18T03:09:09;101101.09;;;6.16;56.91
50852;BME280;43953;45.508;-122.806;2022-12-18T03:09:48;101094.06;;;6.15;57.13
50852;BME280;43953;45.508;-122.806;2022-12-18T03:10:26;101099.41;;;6.15;57.47
50852;BME280;43953;45.508;-122.806;2022-12-18T03:11:18;101096.56;;;6.17;57.36
50852;BME280;43953;45.508;-122.806;2022-12-18T03:12:28;101100.25;;;6.15;57.34
50852;BME280;43953;45.508;-122.806;2022-12-18T03:13:07;101103.56;;;6.18;57.00
50852;BME280;43953;45.508;-122.806;2022-12-18T03:13:42;101099.06;;;6.18;57.30
50852;BME280;43953;45.508;-122.806;2022-12-18T03:14:17;101095.41;;;6.19;57.38
50852;BME280;43953;45.508;-122.806;2022-12-18T03:15:39;101095.41;;;6.19;56.99
50852;BME280;43953;45.508;-122.806;2022-12-18T03:16:24;101086.56;;;6.19;57.28
50852;BME280;43953;45.508;-122.806;2022-12-18T03:17:02;101090.88;;;6.20;56.80